Time;durP1;ratioP1;P1;durP2;ratioP2;P2;SDS_P1;SDS_P2;PMS_P1;PMS_P2;Temp;Humidity;BMP_temperature;BMP_pressure;BME280_temperature;BME280_humidity;BME280_pressure;Samples;Min_cycle;Max_cycle;Signal;HPM_P1;HPM_P2
2023/12/26 00:02:17;;;;;;;62.03;37.17;;;;;;;;;;10446764;28;20120;-81
2023/12/26 00:07:18;;;;;;;49.13;28.70;;;;;;;;;;10440259;28;20472;-82
2023/12/26 00:12:19;;;;;;;50.53;28.63;;;;;;;;;;10444595;28;20099;-83
2023/12/26 00:17:20;;;;;;;41.60;25.37;;;;;;;;;;10447202;28;20114;-81
2023/12/26 00:22:22;;;;;;;40.30;24.63;;;;;;;;;;10450005;28;20766;-83
2023/12/26 00:27:24;;;;;;;43.87;27.33;;;;;;;;;;10448863;28;20136;-82
2023/12/26 00:32:25;;;;;;;41.30;24.83;;;;;;;;;;10448310;28;20116;-82
2023/12/26 00:37:26;;;;;;;37.43;23.57;;;;;;;;;;10443918;28;20139;-81
2023/12/26 00:42:27;;;;;;;39.17;24.43;;;;;;;;;;10447676;28;20199;-84
2023/12/26 00:47:28;;;;;;;33.20;21.97;;;;;;;;;;10428875;28;20082;-81
2023/12/26 00:52:31;;;;;;;27.47;17.43;;;;;;;;;;10425801;28;20026;-82
2023/12/26 00:57:35;;;;;;;21.67;14.23;;;;;;;;;;10412697;28;20119;-82
2023/12/26 01:02:36;;;;;;;25.20;16.07;;;;;;;;;;10436761;28;20049;-81
2023/12/26 01:07:38;;;;;;;25.90;17.00;;;;;;;;;;10440089;28;20083;-82
2023/12/26 01:12:39;;;;;;;21.73;14.10;;;;;;;;;;10438055;28;20029;-82
2023/12/26 01:17:40;;;;;;;21.57;15.50;;;;;;;;;;10442963;28;20032;-81
2023/12/26 01:22:41;;;;;;;18.83;14.67;;;;;;;;;;10442737;28;20044;-80
2023/12/26 01:27:42;;;;;;;24.07;16.00;;;;;;;;;;10432047;28;20067;-80
2023/12/26 01:32:49;;;;;;;18.13;13.67;;;;;;;;;;10414517;28;20037;-81
2023/12/26 01:37:50;;;;;;;18.63;14.07;;;;;;;;;;10444279;28;20498;-82
2023/12/26 01:42:58;;;;;;;20.93;14.43;;;;;;;;;;10436026;28;20037;-80
2023/12/26 01:48:00;;;;;;;21.70;14.97;;;;;;;;;;10441642;28;20378;-80
2023/12/26 01:53:01;;;;;;;15.93;11.93;;;;;;;;;;10434168;28;20622;-80
2023/12/26 01:58:03;;;;;;;19.67;13.23;;;;;;;;;;10440432;28;20128;-80
2023/12/26 02:03:04;;;;;;;15.87;12.03;;;;;;;;;;10442790;28;20037;-81
2023/12/26 02:08:05;;;;;;;16.80;12.57;;;;;;;;;;10431149;28;20024;-79
2023/12/26 02:13:06;;;;;;;17.53;12.50;;;;;;;;;;10438852;28;20028;-81
2023/12/26 02:18:07;;;;;;;16.63;11.20;;;;;;;;;;10441927;28;20040;-83
2023/12/26 02:23:08;;;;;;;15.70;10.77;;;;;;;;;;10431544;28;20476;-82
2023/12/26 02:28:09;;;;;;;14.73;9.90;;;;;;;;;;10428599;28;20061;-82
2023/12/26 02:33:11;;;;;;;15.03;11.20;;;;;;;;;;10449206;28;20911;-81
2023/12/26 02:38:18;;;;;;;15.23;11.67;;;;;;;;;;10433644;28;20041;-80
2023/12/26 02:43:21;;;;;;;15.27;9.57;;;;;;;;;;10420491;28;20043;-82
2023/12/26 02:48:22;;;;;;;10.53;8.73;;;;;;;;;;10439481;28;20479;-80
2023/12/26 02:53:23;;;;;;;8.97;6.70;;;;;;;;;;10436420;28;20033;-80
2023/12/26 02:58:24;;;;;;;8.27;5.50;;;;;;;;;;10434913;28;20025;-82
2023/12/26 03:03:25;;;;;;;7.90;5.03;;;;;;;;;;10447127;28;20045;-79
2023/12/26 03:08:26;;;;;;;7.83;5.13;;;;;;;;;;10432356;28;20037;-80
2023/12/26 03:13:27;;;;;;;9.00;5.40;;;;;;;;;;10446413;28;20672;-81
2023/12/26 03:18:28;;;;;;;8.50;5.10;;;;;;;;;;10439372;28;20527;-80
2023/12/26 03:23:29;;;;;;;5.87;4.07;;;;;;;;;;10450445;28;20051;-79
2023/12/26 03:28:30;;;;;;;5.70;3.80;;;;;;;;;;10438194;28;20068;-79
2023/12/26 03:33:31;;;;;;;4.60;3.33;;;;;;;;;;10442669;28;20504;-82
2023/12/26 03:38:32;;;;;;;6.37;3.93;;;;;;;;;;10449445;28;20188;-79
2023/12/26 03:43:33;;;;;;;5.27;3.40;;;;;;;;;;10448135;28;20061;-81
2023/12/26 03:48:34;;;;;;;4.67;3.20;;;;;;;;;;10438128;28;20041;-81
2023/12/26 03:53:35;;;;;;;5.60;3.50;;;;;;;;;;10434756;28;20025;-81
2023/12/26 03:58:36;;;;;;;5.57;3.83;;;;;;;;;;10442903;28;20682;-80
2023/12/26 04:03:37;;;;;;;8.33;5.20;;;;;;;;;;10450710;28;20102;-81
2023/12/26 04:08:38;;;;;;;6.57;4.10;;;;;;;;;;10449686;28;20043;-80
2023/12/26 04:13:39;;;;;;;8.83;4.90;;;;;;;;;;10445841;28;20036;-82
2023/12/26 04:18:40;;;;;;;7.93;4.30;;;;;;;;;;10448823;28;20032;-80
2023/12/26 04:23:41;;;;;;;11.57;6.20;;;;;;;;;;10439479;28;20222;-80
2023/12/26 04:28:42;;;;;;;9.23;5.83;;;;;;;;;;10438866;28;20154;-83
2023/12/26 04:33:44;;;;;;;11.37;6.07;;;;;;;;;;10449082;28;20035;-81
2023/12/26 04:38:45;;;;;;;8.80;5.00;;;;;;;;;;10444093;28;20060;-82
2023/12/26 04:43:47;;;;;;;6.70;4.17;;;;;;;;;;10436978;28;20031;-79
2023/12/26 04:48:48;;;;;;;7.53;3.73;;;;;;;;;;10445371;28;20036;-81
2023/12/26 04:53:50;;;;;;;5.73;3.60;;;;;;;;;;10445620;28;20545;-81
2023/12/26 04:58:52;;;;;;;10.07;4.30;;;;;;;;;;10439996;28;20430;-82
2023/12/26 05:03:53;;;;;;;4.70;2.83;;;;;;;;;;10447011;28;20100;-80
2023/12/26 05:08:54;;;;;;;5.40;3.10;;;;;;;;;;10444124;28;20024;-80
2023/12/26 05:13:55;;;;;;;4.30;2.90;;;;;;;;;;10442753;28;20043;-80
2023/12/26 05:18:56;;;;;;;4.43;3.03;;;;;;;;;;10446214;28;20511;-83
2023/12/26 05:23:57;;;;;;;3.43;2.40;;;;;;;;;;10436136;28;20043;-81
2023/12/26 05:28:58;;;;;;;3.13;2.10;;;;;;;;;;10434349;28;20083;-81
2023/12/26 05:33:59;;;;;;;4.50;2.40;;;;;;;;;;10445163;28;20437;-82
2023/12/26 05:39:00;;;;;;;3.60;2.20;;;;;;;;;;10446039;28;20025;-81
2023/12/26 05:44:01;;;;;;;5.37;2.90;;;;;;;;;;10436845;28;20025;-80
2023/12/26 05:49:02;;;;;;;5.13;2.80;;;;;;;;;;10423834;28;20049;-80
2023/12/26 05:54:03;;;;;;;5.30;2.80;;;;;;;;;;10437821;28;20537;-80
2023/12/26 05:59:04;;;;;;;6.20;3.37;;;;;;;;;;10444250;28;20029;-79
2023/12/26 06:04:05;;;;;;;6.37;4.17;;;;;;;;;;10441814;28;20037;-80
2023/12/26 06:09:06;;;;;;;7.93;4.60;;;;;;;;;;10430814;28;20443;-80
2023/12/26 06:14:07;;;;;;;7.07;5.37;;;;;;;;;;10442942;28;20033;-82
2023/12/26 06:19:09;;;;;;;12.00;6.20;;;;;;;;;;10442707;28;20482;-82
2023/12/26 06:24:10;;;;;;;9.47;6.03;;;;;;;;;;10434928;28;20033;-81
2023/12/26 06:29:11;;;;;;;9.37;6.30;;;;;;;;;;10435502;28;20403;-82
2023/12/26 06:34:13;;;;;;;7.53;5.43;;;;;;;;;;10439378;28;20043;-80
2023/12/26 06:39:15;;;;;;;8.07;6.13;;;;;;;;;;10441200;28;20039;-80
2023/12/26 06:44:16;;;;;;;11.17;6.70;;;;;;;;;;10428159;28;20048;-79
2023/12/26 06:49:18;;;;;;;10.87;6.20;;;;;;;;;;10432344;28;20457;-80
2023/12/26 06:54:19;;;;;;;9.17;4.67;;;;;;;;;;10429350;28;20029;-80
2023/12/26 06:59:20;;;;;;;5.93;4.20;;;;;;;;;;10443474;28;20041;-79
2023/12/26 07:04:21;;;;;;;8.40;5.17;;;;;;;;;;10433640;28;20047;-80
2023/12/26 07:09:22;;;;;;;6.23;4.17;;;;;;;;;;10437046;28;20033;-81
2023/12/26 07:14:23;;;;;;;9.10;4.17;;;;;;;;;;10431022;28;20404;-79
2023/12/26 07:19:24;;;;;;;6.90;4.20;;;;;;;;;;10449055;28;20033;-81
2023/12/26 07:24:26;;;;;;;6.80;3.97;;;;;;;;;;10449716;28;20025;-81
2023/12/26 07:29:28;;;;;;;7.97;3.53;;;;;;;;;;10450350;28;20077;-82
2023/12/26 07:34:36;;;;;;;5.33;3.43;;;;;;;;;;10447368;28;20061;-82
2023/12/26 07:39:39;;;;;;;5.23;3.27;;;;;;;;;;10440169;28;20136;-83
2023/12/26 07:44:40;;;;;;;6.83;4.03;;;;;;;;;;10442412;28;20036;-80
2023/12/26 07:49:41;;;;;;;5.13;2.93;;;;;;;;;;10447014;28;20519;-82
2023/12/26 07:54:49;;;;;;;4.70;2.47;;;;;;;;;;10444680;28;20037;-80
2023/12/26 07:59:50;;;;;;;3.57;2.37;;;;;;;;;;10453879;28;20072;-82
2023/12/26 08:04:51;;;;;;;4.30;2.70;;;;;;;;;;10449330;28;20033;-81
2023/12/26 08:09:53;;;;;;;6.43;3.20;;;;;;;;;;10437500;28;20036;-80
2023/12/26 08:14:54;;;;;;;10.23;4.37;;;;;;;;;;10436739;28;20037;-80
2023/12/26 08:19:55;;;;;;;5.13;3.10;;;;;;;;;;10427851;28;20059;-79
2023/12/26 08:24:56;;;;;;;5.33;3.23;;;;;;;;;;10434100;28;20567;-77
2023/12/26 08:29:57;;;;;;;7.27;3.70;;;;;;;;;;10440237;28;20064;-79
2023/12/26 08:34:59;;;;;;;8.05;3.10;;;;;;;;;;10448934;28;20112;-77
2023/12/26 08:40:00;;;;;;;4.00;2.80;;;;;;;;;;10438373;28;20045;-80
2023/12/26 08:45:01;;;;;;;7.10;3.03;;;;;;;;;;10447368;28;20392;-80
2023/12/26 08:50:03;;;;;;;8.25;4.72;;;;;;;;;;10445945;28;20044;-79
2023/12/26 08:55:04;;;;;;;6.32;3.83;;;;;;;;;;10441978;28;20048;-79
2023/12/26 09:00:06;;;;;;;11.77;5.40;;;;;;;;;;10417860;28;20045;-79
2023/12/26 09:05:07;;;;;;;6.47;3.67;;;;;;;;;;10433145;28;20025;-79
2023/12/26 09:10:09;;;;;;;5.78;3.40;;;;;;;;;;10445211;28;20024;-80
2023/12/26 09:15:10;;;;;;;7.80;4.03;;;;;;;;;;10428492;28;20032;-81
2023/12/26 09:20:11;;;;;;;7.85;4.05;;;;;;;;;;10442429;28;20911;-81
2023/12/26 09:25:13;;;;;;;10.10;4.30;;;;;;;;;;10444659;28;20082;-80
2023/12/26 09:30:17;;;;;;;7.72;4.20;;;;;;;;;;10440508;28;20088;-79
2023/12/26 09:35:18;;;;;;;10.65;5.53;;;;;;;;;;10443427;28;20392;-79
2023/12/26 09:40:20;;;;;;;8.60;4.50;;;;;;;;;;10426352;28;20041;-78
2023/12/26 09:45:23;;;;;;;8.25;4.00;;;;;;;;;;10439038;28;20033;-80
2023/12/26 09:50:24;;;;;;;6.88;4.20;;;;;;;;;;10435833;28;20112;-82
2023/12/26 09:55:28;;;;;;;8.52;4.35;;;;;;;;;;10431329;28;20111;-82
2023/12/26 10:00:29;;;;;;;8.77;4.60;;;;;;;;;;10438477;28;20051;-81
2023/12/26 10:05:38;;;;;;;6.15;3.40;;;;;;;;;;10436484;28;20053;-80
2023/12/26 10:10:39;;;;;;;7.22;3.72;;;;;;;;;;10434236;28;20029;-81
2023/12/26 10:15:42;;;;;;;7.93;4.35;;;;;;;;;;10430788;28;20411;-79
2023/12/26 10:20:43;;;;;;;7.15;3.88;;;;;;;;;;10420295;28;20487;-82
2023/12/26 10:25:44;;;;;;;6.70;3.80;;;;;;;;;;10439842;28;20025;-81
2023/12/26 10:30:52;;;;;;;7.53;3.90;;;;;;;;;;10439405;28;20053;-80
2023/12/26 10:36:07;;;;;;;5.75;3.35;;;;;;;;;;10437089;28;20041;-82
2023/12/26 10:41:10;;;;;;;8.03;4.03;;;;;;;;;;10414138;28;20037;-81
2023/12/26 10:46:11;;;;;;;12.73;5.88;;;;;;;;;;10422566;28;20118;-81
2023/12/26 10:51:14;;;;;;;37.50;15.55;;;;;;;;;;10437091;28;20044;-82
2023/12/26 10:56:16;;;;;;;22.25;9.10;;;;;;;;;;10450030;28;20083;-83
2023/12/26 13:51:29;;;;;;;12.30;6.13;;;;;;;;;;10440990;28;20029;-82
2023/12/26 13:56:55;;;;;;;10.50;5.97;;;;;;;;;;10400802;28;20496;-81
2023/12/26 14:19:10;;;;;;;27.02;12.43;;;;;;;;;;10433887;28;20033;-80
2023/12/26 14:24:31;;;;;;;23.40;9.80;;;;;;;;;;10434989;28;20044;-80
2023/12/26 14:29:51;;;;;;;32.70;14.68;;;;;;;;;;10429497;28;20101;-81
2023/12/26 14:40:56;;;;;;;19.98;9.00;;;;;;;;;;10440574;28;20053;-80
2023/12/26 14:46:16;;;;;;;23.35;9.90;;;;;;;;;;10441261;28;20029;-80
2023/12/26 14:57:18;;;;;;;25.37;12.20;;;;;;;;;;10452006;28;20075;-83
2023/12/26 15:02:19;;;;;;;21.23;10.77;;;;;;;;;;10429198;28;20044;-81
2023/12/26 15:07:20;;;;;;;31.33;13.35;;;;;;;;;;10445439;28;20044;-81
2023/12/26 15:12:21;;;;;;;29.00;13.23;;;;;;;;;;10424974;28;20505;-81
2023/12/26 15:17:22;;;;;;;35.67;16.88;;;;;;;;;;10450259;28;20039;-80
2023/12/26 15:22:24;;;;;;;30.83;13.77;;;;;;;;;;10452608;28;20618;-79
2023/12/26 15:27:53;;;;;;;37.50;15.37;;;;;;;;;;10449467;28;20029;-80
2023/12/26 15:32:54;;;;;;;29.30;12.50;;;;;;;;;;10724453;22;20068;-80
2023/12/26 15:37:56;;;;;;;33.67;16.53;;;;;;;;;;10490322;28;20040;-82
2023/12/26 15:42:56;;;;;;;42.10;18.80;;;;;;;;;;10485850;28;20048;-81
2023/12/26 15:48:04;;;;;;;31.13;15.43;;;;;;;;;;10492700;28;20032;-81
2023/12/26 15:53:08;;;;;;;23.47;10.60;;;;;;;;;;10489411;28;20040;-80
2023/12/26 15:58:15;;;;;;;19.13;9.63;;;;;;;;;;10470818;28;20089;-83
2023/12/26 16:03:16;;;;;;;33.27;15.57;;;;;;;;;;10477286;28;20040;-81
2023/12/26 16:08:17;;;;;;;34.03;17.63;;;;;;;;;;10490808;28;20375;-81
2023/12/26 16:13:46;;;;;;;26.50;12.27;;;;;;;;;;10489783;28;20024;-81
2023/12/26 16:18:49;;;;;;;30.27;14.47;;;;;;;;;;10383929;28;20045;-82
2023/12/26 16:23:50;;;;;;;48.50;24.60;;;;;;;;;;10394329;28;20112;-82
2023/12/26 16:28:52;;;;;;;35.80;17.47;;;;;;;;;;10370445;28;20045;-82
2023/12/26 16:34:00;;;;;;;31.03;17.00;;;;;;;;;;10344521;28;20057;-83
2023/12/26 16:39:02;;;;;;;35.33;16.03;;;;;;;;;;10355708;28;20114;-83
2023/12/26 16:44:09;;;;;;;44.43;21.60;;;;;;;;;;10339697;28;20046;-82
2023/12/26 16:49:10;;;;;;;33.20;17.57;;;;;;;;;;10392794;28;20037;-81
2023/12/26 16:54:11;;;;;;;31.73;13.40;;;;;;;;;;10434631;28;20033;-84
2023/12/26 16:59:12;;;;;;;24.90;13.17;;;;;;;;;;10437778;28;20032;-82
2023/12/26 17:04:14;;;;;;;26.03;12.43;;;;;;;;;;10438568;28;20390;-80
2023/12/26 17:09:15;;;;;;;21.37;11.43;;;;;;;;;;10443896;28;20044;-81
2023/12/26 17:14:16;;;;;;;26.20;13.53;;;;;;;;;;10439382;28;20035;-81
2023/12/26 17:19:18;;;;;;;26.93;13.97;;;;;;;;;;10436746;28;20123;-81
2023/12/26 17:24:20;;;;;;;33.83;17.70;;;;;;;;;;10414977;28;20040;-83
2023/12/26 17:29:21;;;;;;;31.97;16.17;;;;;;;;;;10425403;28;20544;-82
2023/12/26 17:34:23;;;;;;;34.80;18.20;;;;;;;;;;10439618;28;20150;-81
2023/12/26 17:39:24;;;;;;;37.50;20.17;;;;;;;;;;10441274;28;20025;-81
2023/12/26 17:44:39;;;;;;;30.87;14.17;;;;;;;;;;10419940;28;20112;-82
2023/12/26 17:49:41;;;;;;;39.33;19.95;;;;;;;;;;10418545;28;20041;-81
2023/12/26 17:54:42;;;;;;;51.70;27.03;;;;;;;;;;10436741;28;20575;-81
2023/12/26 17:59:43;;;;;;;33.93;17.23;;;;;;;;;;10434691;28;20056;-80
2023/12/26 18:04:44;;;;;;;42.43;19.67;;;;;;;;;;10444947;28;20025;-83
2023/12/26 18:09:45;;;;;;;38.90;19.00;;;;;;;;;;10444353;28;20032;-79
2023/12/26 18:14:46;;;;;;;48.07;24.37;;;;;;;;;;10435490;28;20493;-81
2023/12/26 18:19:49;;;;;;;56.00;26.20;;;;;;;;;;10444171;28;20090;-81
2023/12/26 18:24:59;;;;;;;69.70;28.27;;;;;;;;;;10436422;28;20029;-82
2023/12/26 18:30:00;;;;;;;104.37;40.27;;;;;;;;;;10433087;28;20041;-81
2023/12/26 18:35:01;;;;;;;84.93;35.17;;;;;;;;;;10442165;28;20590;-82
2023/12/26 18:40:02;;;;;;;95.37;38.27;;;;;;;;;;10434659;28;20536;-80
2023/12/26 18:45:04;;;;;;;62.10;28.70;;;;;;;;;;10432786;28;20045;-81
2023/12/26 18:50:08;;;;;;;57.90;24.53;;;;;;;;;;10420983;28;20476;-83
2023/12/26 18:55:09;;;;;;;42.03;18.63;;;;;;;;;;10441322;28;20025;-80
2023/12/26 19:00:11;;;;;;;25.00;12.97;;;;;;;;;;10430816;28;20045;-80
2023/12/26 19:05:12;;;;;;;33.83;15.33;;;;;;;;;;10445930;28;20036;-81
2023/12/26 19:10:13;;;;;;;29.80;14.83;;;;;;;;;;10429622;28;20037;-81
2023/12/26 19:15:15;;;;;;;33.37;15.50;;;;;;;;;;10440544;28;20041;-80
2023/12/26 19:20:16;;;;;;;135.20;56.23;;;;;;;;;;10431196;28;20052;-80
2023/12/26 19:25:19;;;;;;;43.33;20.37;;;;;;;;;;10446417;28;20749;-85
2023/12/26 19:30:20;;;;;;;19.70;10.37;;;;;;;;;;10439463;28;20075;-84
2023/12/26 19:35:21;;;;;;;30.40;12.63;;;;;;;;;;10433573;28;20091;-82
2023/12/26 19:40:23;;;;;;;17.37;7.40;;;;;;;;;;10444556;28;20048;-85
2023/12/26 19:45:24;;;;;;;17.10;6.90;;;;;;;;;;10423707;28;20076;-80
2023/12/26 19:50:29;;;;;;;14.43;5.67;;;;;;;;;;10414942;28;20293;-80
2023/12/26 19:55:32;;;;;;;20.10;6.33;;;;;;;;;;10422859;28;20036;-80
2023/12/26 20:00:49;;;;;;;;;;;;;;;;;;;;;
2023/12/26 20:05:54;;;;;;;13.70;5.73;;;;;;;;;;10436411;28;20037;-81
2023/12/26 20:10:59;;;;;;;14.03;5.50;;;;;;;;;;10441354;28;20384;-84
2023/12/26 20:16:07;;;;;;;14.10;5.83;;;;;;;;;;10412374;28;20043;-80
2023/12/26 20:21:09;;;;;;;16.83;6.07;;;;;;;;;;10422698;28;20151;-82
2023/12/26 20:26:10;;;;;;;10.57;4.47;;;;;;;;;;10444992;28;20074;-82
2023/12/26 20:31:11;;;;;;;9.67;4.30;;;;;;;;;;10439382;28;20110;-82
2023/12/26 20:36:18;;;;;;;15.37;4.90;;;;;;;;;;10439341;28;20038;-85
2023/12/26 20:41:21;;;;;;;23.10;9.43;;;;;;;;;;10445881;28;20045;-80
2023/12/26 20:46:22;;;;;;;40.67;14.23;;;;;;;;;;10441202;28;20029;-80
2023/12/26 20:51:23;;;;;;;27.20;9.53;;;;;;;;;;10438396;28;20033;-79
2023/12/26 20:56:24;;;;;;;16.50;6.27;;;;;;;;;;10435305;28;20037;-80
2023/12/26 21:01:25;;;;;;;14.47;6.00;;;;;;;;;;10421544;28;20451;-80
2023/12/26 21:06:26;;;;;;;22.33;8.27;;;;;;;;;;10443236;28;20033;-80
2023/12/26 21:11:27;;;;;;;15.43;7.03;;;;;;;;;;10437179;28;20121;-85
2023/12/26 21:16:28;;;;;;;17.33;6.50;;;;;;;;;;10444560;28;20025;-81
2023/12/26 21:21:29;;;;;;;27.13;10.33;;;;;;;;;;10442624;28;20496;-82
2023/12/26 21:26:30;;;;;;;14.90;5.67;;;;;;;;;;10443600;28;20035;-80
2023/12/26 21:31:31;;;;;;;42.83;15.13;;;;;;;;;;10445508;28;20461;-84
2023/12/26 21:36:34;;;;;;;27.27;8.43;;;;;;;;;;10443319;28;20043;-80
2023/12/26 21:41:40;;;;;;;32.80;10.77;;;;;;;;;;10437252;28;20037;-80
2023/12/26 21:46:44;;;;;;;25.80;10.43;;;;;;;;;;10420539;28;20033;-81
2023/12/26 21:51:46;;;;;;;18.07;7.27;;;;;;;;;;10436374;28;20053;-83
2023/12/26 21:56:47;;;;;;;17.07;8.17;;;;;;;;;;10442554;28;20052;-81
2023/12/26 22:01:48;;;;;;;23.37;9.13;;;;;;;;;;10436675;28;20074;-80
2023/12/26 22:06:49;;;;;;;25.90;9.60;;;;;;;;;;10445078;28;20836;-85
2023/12/26 22:11:50;;;;;;;17.67;7.73;;;;;;;;;;10435494;28;20087;-80
2023/12/26 22:16:51;;;;;;;17.80;8.80;;;;;;;;;;10430991;28;20642;-80
2023/12/26 22:21:52;;;;;;;18.40;8.00;;;;;;;;;;10443128;28;20052;-80
2023/12/26 22:26:53;;;;;;;18.50;7.80;;;;;;;;;;10443289;28;20112;-79
2023/12/26 22:32:00;;;;;;;20.17;8.00;;;;;;;;;;10443223;28;20064;-82
2023/12/26 22:37:01;;;;;;;19.60;6.97;;;;;;;;;;10434658;28;20039;-80
2023/12/26 22:42:02;;;;;;;18.67;7.20;;;;;;;;;;10443776;28;20052;-80
2023/12/26 22:47:03;;;;;;;19.10;6.30;;;;;;;;;;10435142;28;20025;-80
2023/12/26 22:52:05;;;;;;;11.00;4.63;;;;;;;;;;10436667;28;20041;-80
2023/12/26 22:57:06;;;;;;;14.57;6.57;;;;;;;;;;10422145;28;20032;-83
2023/12/26 23:02:07;;;;;;;16.63;6.53;;;;;;;;;;10443648;28;20048;-84
2023/12/26 23:07:08;;;;;;;18.03;7.10;;;;;;;;;;10439821;28;20091;-80
2023/12/26 23:12:09;;;;;;;24.50;8.73;;;;;;;;;;10450660;28;20783;-81
2023/12/26 23:17:10;;;;;;;18.13;7.33;;;;;;;;;;10445680;28;20090;-82
2023/12/26 23:22:11;;;;;;;25.00;8.87;;;;;;;;;;10433559;28;20051;-83
2023/12/26 23:27:12;;;;;;;19.63;9.37;;;;;;;;;;10450839;28;20555;-80
2023/12/26 23:32:13;;;;;;;20.87;8.53;;;;;;;;;;10431654;28;20067;-80
2023/12/26 23:37:15;;;;;;;16.17;7.53;;;;;;;;;;10466424;22;20099;-80
2023/12/26 23:42:16;;;;;;;14.97;6.37;;;;;;;;;;10450348;28;20053;-82
2023/12/26 23:47:17;;;;;;;17.63;6.70;;;;;;;;;;10450334;28;20067;-80
2023/12/26 23:52:18;;;;;;;18.20;6.27;;;;;;;;;;10451513;28;20025;-81
2023/12/26 23:57:19;;;;;;;16.50;7.07;;;;;;;;;;10439411;28;20472;-80
